Time;durP1;ratioP1;P1;durP2;ratioP2;P2;SDS_P1;SDS_P2;PMS_P1;PMS_P2;Temp;Humidity;BMP_temperature;BMP_pressure;BME280_temperature;BME280_humidity;BME280_pressure;Samples;Min_cycle;Max_cycle;Signal;HPM_P1;HPM_P2
2023/01/30 00:00:04;;;;;;;30.90;19.60;;;;;;;0.36;90.04;99786.88;102464;1254;1003081;-73
2023/01/30 00:02:52;;;;;;;32.00;19.70;;;;;;;0.38;90.00;99784.13;103343;1259;112246;-72
2023/01/30 00:05:19;;;;;;;29.50;19.30;;;;;;;0.39;89.92;99775.92;103398;1254;108611;-73
2023/01/30 00:07:46;;;;;;;31.60;20.00;;;;;;;0.37;89.91;99777.81;103227;1257;139285;-73
2023/01/30 00:10:13;;;;;;;30.30;19.10;;;;;;;0.36;89.85;99769.44;103281;1256;107022;-73
2023/01/30 00:12:41;;;;;;;30.80;19.50;;;;;;;0.37;89.86;99767.71;103310;1256;138475;-74
2023/01/30 00:15:09;;;;;;;33.50;20.30;;;;;;;0.37;89.86;99764.13;103302;1257;110017;-73
2023/01/30 00:17:36;;;;;;;28.80;19.10;;;;;;;0.37;89.90;99754.20;103475;1255;106611;-73
2023/01/30 00:20:05;;;;;;;30.70;19.60;;;;;;;0.35;89.81;99747.02;103569;1254;138391;-74
2023/01/30 00:22:31;;;;;;;31.20;19.30;;;;;;;0.36;89.79;99738.98;103452;1256;107053;-73
2023/01/30 00:24:58;;;;;;;27.40;18.60;;;;;;;0.36;89.80;99732.46;103200;1253;138582;-73
2023/01/30 00:27:26;;;;;;;28.90;19.20;;;;;;;0.36;89.81;99732.30;101875;1255;1003665;-73
2023/01/30 00:29:54;;;;;;;29.40;18.90;;;;;;;0.35;89.75;99721.52;103329;1256;106856;-73
2023/01/30 00:32:29;;;;;;;28.20;18.90;;;;;;;0.34;89.83;99716.73;103434;1255;96354;-72
2023/01/30 00:34:56;;;;;;;29.50;19.40;;;;;;;0.33;89.88;99708.19;102617;1254;1003390;-73
2023/01/30 00:37:23;;;;;;;32.80;20.90;;;;;;;0.33;89.82;99710.92;103327;1253;139114;-74
2023/01/30 00:39:50;;;;;;;28.40;19.30;;;;;;;0.32;89.88;99704.08;103444;1256;109974;-73
2023/01/30 00:47:48;;;;;;;33.10;20.80;;;;;;;0.29;90.18;99688.52;103307;1257;108075;-72
2023/01/30 00:50:15;;;;;;;30.40;19.90;;;;;;;0.29;90.23;99682.53;103357;1257;137966;-73
2023/01/30 00:52:42;;;;;;;28.80;19.90;;;;;;;0.29;90.16;99679.98;103479;1256;110361;-72
2023/01/30 00:55:10;;;;;;;30.10;20.10;;;;;;;0.29;90.13;99667.49;103214;1254;138254;-72
2023/01/30 00:57:37;;;;;;;28.50;19.70;;;;;;;0.28;90.19;99659.80;103419;1257;96459;-73
2023/01/30 01:00:07;;;;;;;31.60;19.60;;;;;;;0.29;90.25;99659.11;103120;1257;138897;-75
2023/01/30 01:02:35;;;;;;;29.30;19.50;;;;;;;0.28;90.27;99650.56;103446;1253;96426;-72
2023/01/30 01:05:02;;;;;;;30.10;20.20;;;;;;;0.26;90.08;99635.69;103368;1257;111134;-72
2023/01/30 01:07:29;;;;;;;28.30;19.40;;;;;;;0.26;90.25;99635.86;103279;1257;139696;-74
2023/01/30 01:09:58;;;;;;;28.50;19.00;;;;;;;0.25;90.15;99624.73;103339;1256;96930;-73
2023/01/30 01:12:24;;;;;;;28.20;18.10;;;;;;;0.27;90.10;99616.71;102482;1254;1002728;-72
2023/01/30 01:14:51;;;;;;;27.90;18.20;;;;;;;0.27;90.19;99615.69;103307;1254;96441;-73
2023/01/30 01:17:18;;;;;;;26.00;17.30;;;;;;;0.27;89.96;99607.31;103376;1266;109268;-73
2023/01/30 01:19:45;;;;;;;27.70;17.90;;;;;;;0.29;89.97;99596.53;103241;1255;138129;-71
2023/01/30 01:22:12;;;;;;;25.50;17.00;;;;;;;0.28;89.93;99582.68;103346;1255;96465;-73
2023/01/30 01:24:39;;;;;;;23.90;17.30;;;;;;;0.29;89.90;99579.09;103083;1259;139136;-72
2023/01/30 01:27:07;;;;;;;25.90;16.90;;;;;;;0.30;89.76;99568.98;103418;1258;96424;-73
2023/01/30 01:29:34;;;;;;;25.60;17.00;;;;;;;0.31;89.77;99563.35;103392;1253;109876;-72
2023/01/30 01:32:01;;;;;;;25.50;16.50;;;;;;;0.31;89.73;99553.27;103178;1258;138479;-73
2023/01/30 01:34:28;;;;;;;25.60;16.50;;;;;;;0.31;89.63;99553.43;103418;1258;96348;-73
2023/01/30 01:36:55;;;;;;;24.00;15.90;;;;;;;0.31;89.75;99547.79;103317;1255;138077;-73
2023/01/30 01:39:22;;;;;;;21.90;15.30;;;;;;;0.32;89.87;99543.52;103300;1255;96351;-73
2023/01/30 01:41:49;;;;;;;25.40;15.70;;;;;;;0.32;89.68;99543.85;102632;1254;1003737;-73
2023/01/30 01:44:16;;;;;;;24.60;15.70;;;;;;;0.33;89.59;99539.75;103225;1257;138312;-73
2023/01/30 01:46:48;;;;;;;20.00;14.20;;;;;;;0.33;89.57;99535.47;102624;1255;1003046;-73
2023/01/30 01:49:20;;;;;;;21.40;15.00;;;;;;;0.33;89.54;99519.05;103866;1255;138805;-73
2023/01/30 01:51:53;;;;;;;19.40;13.60;;;;;;;0.34;89.63;99518.36;103592;1254;96325;-73
2023/01/30 01:54:29;;;;;;;21.40;14.40;;;;;;;0.34;89.59;99504.69;103242;1255;139918;-73
2023/01/30 01:56:56;;;;;;;21.00;14.50;;;;;;;0.34;89.50;99504.52;102570;1258;1002706;-73
2023/01/30 01:59:28;;;;;;;21.00;14.00;;;;;;;0.34;89.44;99502.46;102582;1254;1002592;-73
2023/01/30 02:02:00;;;;;;;19.40;13.60;;;;;;;0.35;89.36;99502.46;103219;1256;138529;-73
2023/01/30 02:07:20;;;;;;;19.20;12.90;;;;;;;0.36;89.40;99487.76;103275;1254;137988;-73
2023/01/30 02:09:47;;;;;;;20.80;12.80;;;;;;;0.35;89.22;99482.12;103337;1253;109686;-73
2023/01/30 02:12:16;;;;;;;18.60;12.60;;;;;;;0.36;89.26;99480.23;102515;1254;1003189;-74
2023/01/30 02:14:44;;;;;;;19.60;12.80;;;;;;;0.36;89.02;99478.54;103341;1254;108882;-73
2023/01/30 02:17:12;;;;;;;19.60;12.30;;;;;;;0.36;88.96;99482.30;102598;1255;1003725;-73
2023/01/30 02:19:50;;;;;;;17.60;12.20;;;;;;;0.36;89.07;99469.48;103099;1252;138242;-73
2023/01/30 02:22:31;;;;;;;17.50;12.40;;;;;;;0.35;88.87;99456.64;103384;1255;106559;-74
2023/01/30 02:25:43;;;;;;;21.80;14.50;;;;;;;0.33;88.94;99460.58;102552;1253;1003002;-74
2023/01/30 02:28:37;;;;;;;22.30;13.60;;;;;;;0.33;88.83;99456.83;103379;1254;106770;-74
2023/01/30 02:31:15;;;;;;;22.70;14.80;;;;;;;0.33;88.85;99460.06;103111;1254;138744;-74
2023/01/30 02:33:53;;;;;;;22.30;14.60;;;;;;;0.33;88.65;99461.27;103535;1254;109339;-73
2023/01/30 02:36:27;;;;;;;23.00;14.80;;;;;;;0.32;88.71;99459.73;103182;1254;138584;-73
2023/01/30 02:39:02;;;;;;;24.50;15.70;;;;;;;0.33;88.60;99450.15;103469;1254;96476;-73
2023/01/30 02:41:37;;;;;;;25.70;16.10;;;;;;;0.32;88.25;99450.15;103808;1254;108304;-73
2023/01/30 02:44:11;;;;;;;25.80;15.50;;;;;;;0.31;88.23;99438.87;103175;1253;138306;-73
2023/01/30 02:46:51;;;;;;;23.00;15.10;;;;;;;0.30;88.09;99434.95;103346;1257;110057;-73
2023/01/30 02:49:23;;;;;;;24.20;14.50;;;;;;;0.27;87.64;99428.28;103275;1254;138283;-73
2023/01/30 02:51:52;;;;;;;26.80;15.90;;;;;;;0.26;87.57;99417.36;103650;1254;96318;-72
2023/01/30 02:54:19;;;;;;;20.10;14.50;;;;;;;0.25;87.54;99415.83;103175;1257;138751;-73
2023/01/30 02:56:51;;;;;;;23.30;14.30;;;;;;;0.25;87.46;99408.98;103379;1254;96585;-73
2023/01/30 02:59:23;;;;;;;23.50;15.00;;;;;;;0.24;87.35;99406.42;103616;1254;109800;-73
2023/01/30 03:02:39;;;;;;;22.20;14.10;;;;;;;0.23;87.14;99400.96;103174;1257;138295;-73
2023/01/30 03:05:22;;;;;;;23.30;13.90;;;;;;;0.22;86.97;99396.52;102964;1263;96518;-73
2023/01/30 03:07:55;;;;;;;22.60;14.40;;;;;;;0.23;87.09;99394.80;102121;1263;1002596;-73
2023/01/30 03:10:36;;;;;;;23.40;14.30;;;;;;;0.22;86.94;99392.76;102927;1263;97065;-73
2023/01/30 03:13:11;;;;;;;21.50;13.50;;;;;;;0.19;86.58;99383.71;102893;1257;139594;-73
2023/01/30 03:15:44;;;;;;;24.30;15.10;;;;;;;0.17;86.67;99377.03;102957;1262;107025;-73
2023/01/30 03:18:11;;;;;;;25.60;14.30;;;;;;;0.16;86.67;99372.76;102735;1263;139229;-74
2023/01/30 03:20:41;;;;;;;23.70;15.10;;;;;;;0.15;86.79;99361.66;102926;1263;108781;-73
2023/01/30 03:23:08;;;;;;;24.60;14.40;;;;;;;0.15;86.50;99345.08;102145;1260;1003017;-73
2023/01/30 03:25:41;;;;;;;23.90;15.30;;;;;;;0.13;86.60;99340.31;102817;1263;140719;-73
2023/01/30 03:28:10;;;;;;;27.70;15.30;;;;;;;0.13;86.63;99326.98;102925;1257;107168;-73
2023/01/30 03:30:38;;;;;;;24.60;15.70;;;;;;;0.12;86.80;99316.38;101965;1263;1003369;-73
2023/01/30 03:33:07;;;;;;;23.30;14.40;;;;;;;0.09;86.82;99314.01;102978;1262;108560;-73
2023/01/30 03:35:35;;;;;;;26.50;15.00;;;;;;;0.07;86.99;99305.82;103124;1257;96633;-73
2023/01/30 03:38:02;;;;;;;22.70;14.80;;;;;;;0.04;87.21;99301.39;102829;1257;138567;-73
2023/01/30 03:40:30;;;;;;;25.40;15.60;;;;;;;0.03;87.48;99295.94;102181;1257;1017318;-72
2023/01/30 03:42:57;;;;;;;26.10;15.90;;;;;;;0.01;87.75;99285.00;103147;1254;138511;-73
2023/01/30 03:45:24;;;;;;;25.20;14.90;;;;;;;-0.05;87.75;99286.04;103155;1254;108062;-73
2023/01/30 03:47:51;;;;;;;24.50;15.60;;;;;;;-0.09;88.00;99287.27;103188;1260;96465;-74
2023/01/30 03:50:19;;;;;;;24.80;15.90;;;;;;;-0.13;88.14;99285.07;103281;1257;109878;-73
2023/01/30 03:52:46;;;;;;;27.90;16.30;;;;;;;-0.15;88.38;99286.11;103381;1256;108871;-74
2023/01/30 03:55:15;;;;;;;24.80;15.60;;;;;;;-0.18;88.37;99279.63;103185;1260;138479;-73
2023/01/30 03:57:43;;;;;;;26.00;16.10;;;;;;;-0.21;88.63;99270.56;103257;1254;106691;-73
2023/01/30 04:00:12;;;;;;;27.20;17.10;;;;;;;-0.23;88.67;99265.80;103242;1257;140399;-73
2023/01/30 04:02:42;;;;;;;28.50;17.40;;;;;;;-0.25;88.61;99261.52;103536;1256;110297;-73
2023/01/30 04:05:11;;;;;;;26.20;16.60;;;;;;;-0.27;88.45;99259.84;103563;1254;108005;-74
2023/01/30 04:07:40;;;;;;;26.90;16.90;;;;;;;-0.28;88.59;99254.73;103372;1254;138549;-74
2023/01/30 04:10:09;;;;;;;30.60;17.80;;;;;;;-0.31;88.73;99235.95;103247;1254;106752;-74
2023/01/30 04:12:36;;;;;;;29.40;17.50;;;;;;;-0.31;88.56;99237.83;103205;1254;140396;-74
2023/01/30 04:15:03;;;;;;;29.20;17.00;;;;;;;-0.31;88.63;99235.44;103286;1254;110030;-74
2023/01/30 04:17:46;;;;;;;28.50;16.80;;;;;;;-0.33;88.54;99228.27;103238;1253;106725;-73
2023/01/30 04:20:16;;;;;;;28.20;17.20;;;;;;;-0.34;88.29;99228.80;103290;1254;138115;-73
2023/01/30 04:22:47;;;;;;;26.20;17.10;;;;;;;-0.35;88.38;99217.19;103413;1254;107935;-73
2023/01/30 04:25:15;;;;;;;25.00;16.20;;;;;;;-0.35;88.33;99208.48;103334;1253;139056;-73
2023/01/30 04:27:43;;;;;;;29.40;17.50;;;;;;;-0.36;88.28;99202.99;103295;1253;111795;-73
2023/01/30 04:30:14;;;;;;;27.40;17.20;;;;;;;-0.37;88.36;99196.17;103278;1253;138844;-74
2023/01/30 04:32:41;;;;;;;27.10;16.40;;;;;;;-0.38;88.41;99186.44;103400;1253;98130;-73
2023/01/30 04:35:11;;;;;;;30.50;16.90;;;;;;;-0.40;88.14;99187.13;102456;1254;1002452;-73
2023/01/30 04:37:38;;;;;;;30.00;16.90;;;;;;;-0.41;88.12;99176.89;103229;1256;138830;-73
2023/01/30 04:40:07;;;;;;;28.20;16.50;;;;;;;-0.41;88.08;99178.25;103281;1254;109235;-73
2023/01/30 04:42:34;;;;;;;27.70;16.30;;;;;;;-0.40;87.96;99169.88;103283;1258;139070;-73
2023/01/30 04:45:24;;;;;;;25.80;15.10;;;;;;;-0.40;87.84;99159.63;103412;1254;96325;-75
2023/01/30 04:47:51;;;;;;;24.80;15.40;;;;;;;-0.41;87.63;99141.55;103115;1254;107840;-73
2023/01/30 04:50:18;;;;;;;22.80;14.80;;;;;;;-0.40;87.62;99137.77;103292;1253;96389;-73
2023/01/30 04:52:45;;;;;;;25.60;13.80;;;;;;;-0.37;87.44;99142.52;102672;1254;1002990;-73
2023/01/30 04:55:13;;;;;;;24.40;13.80;;;;;;;-0.35;87.28;99141.86;103168;1257;139758;-74
2023/01/30 04:57:40;;;;;;;20.40;12.40;;;;;;;-0.34;87.19;99143.91;103400;1257;96332;-74
2023/01/30 05:00:11;;;;;;;23.00;14.50;;;;;;;-0.33;86.96;99146.48;103238;1254;138971;-74
2023/01/30 05:02:42;;;;;;;22.40;13.30;;;;;;;-0.34;87.03;99142.54;103142;1257;96481;-73
2023/01/30 05:05:09;;;;;;;22.40;13.60;;;;;;;-0.35;86.78;99146.98;102469;1253;1003245;-73
2023/01/30 05:07:36;;;;;;;22.60;13.50;;;;;;;-0.38;86.83;99128.02;103283;1256;138709;-73
2023/01/30 05:10:04;;;;;;;22.10;13.40;;;;;;;-0.36;86.69;99125.63;102684;1256;1002841;-72
2023/01/30 05:12:32;;;;;;;21.80;13.10;;;;;;;-0.39;86.52;99112.48;103213;1254;138854;-74
2023/01/30 05:15:01;;;;;;;22.30;13.80;;;;;;;-0.38;86.46;99108.05;103471;1253;96504;-74
2023/01/30 05:17:28;;;;;;;19.30;12.10;;;;;;;-0.38;86.40;99111.46;103367;1254;109719;-73
2023/01/30 05:19:55;;;;;;;20.00;12.70;;;;;;;-0.39;86.37;99098.33;102513;1253;1003466;-72
2023/01/30 05:22:21;;;;;;;20.30;12.60;;;;;;;-0.39;86.64;99088.08;103456;1254;96452;-75
2023/01/30 05:24:48;;;;;;;20.10;12.50;;;;;;;-0.39;86.56;99083.64;103311;1254;138192;-73
2023/01/30 05:27:15;;;;;;;20.80;12.80;;;;;;;-0.41;86.56;99078.17;103440;1253;96431;-75
2023/01/30 05:29:42;;;;;;;19.80;12.50;;;;;;;-0.40;86.60;99070.84;103474;1253;110015;-73
2023/01/30 05:32:12;;;;;;;20.10;12.40;;;;;;;-0.40;86.62;99066.90;103301;1254;138107;-74
2023/01/30 05:34:39;;;;;;;19.90;12.70;;;;;;;-0.42;86.34;99064.54;103475;1253;96481;-73
2023/01/30 05:37:06;;;;;;;20.50;12.70;;;;;;;-0.44;86.59;99056.35;103349;1253;138237;-73
2023/01/30 05:39:34;;;;;;;23.60;12.80;;;;;;;-0.43;86.58;99060.61;103436;1257;96454;-73
2023/01/30 05:42:01;;;;;;;19.90;13.00;;;;;;;-0.41;86.50;99056.34;103291;1253;140036;-73
2023/01/30 05:44:28;;;;;;;19.80;12.80;;;;;;;-0.41;86.44;99065.21;103390;1254;107117;-73
2023/01/30 05:46:55;;;;;;;20.20;12.50;;;;;;;-0.40;86.25;99048.13;102671;1253;1003317;-73
2023/01/30 05:49:22;;;;;;;20.70;12.20;;;;;;;-0.40;86.21;99038.73;102557;1253;1003462;-73
2023/01/30 05:51:49;;;;;;;20.40;12.30;;;;;;;-0.40;86.09;99038.21;103429;1256;96456;-74
2023/01/30 05:54:17;;;;;;;19.60;12.40;;;;;;;-0.41;85.88;99030.54;102552;1253;1003173;-74
2023/01/30 05:56:48;;;;;;;18.30;12.40;;;;;;;-0.41;86.05;99030.03;103370;1256;107695;-73
2023/01/30 05:59:18;;;;;;;20.10;13.30;;;;;;;-0.41;85.92;99032.25;102600;1256;1002702;-73
2023/01/30 06:01:45;;;;;;;19.90;12.30;;;;;;;-0.42;85.85;99025.44;103273;1256;138441;-73
2023/01/30 06:04:12;;;;;;;23.00;13.10;;;;;;;-0.43;85.94;99022.88;103382;1253;96330;-73
2023/01/30 06:06:39;;;;;;;22.00;12.90;;;;;;;-0.43;85.81;99019.63;103340;1254;138187;-74
2023/01/30 06:09:05;;;;;;;20.70;13.70;;;;;;;-0.42;85.80;99006.13;103407;1253;106517;-74
2023/01/30 06:11:32;;;;;;;19.20;12.40;;;;;;;-0.41;85.73;98996.23;103421;1257;97259;-73
2023/01/30 06:13:59;;;;;;;17.20;11.90;;;;;;;-0.40;85.76;98993.65;102599;1253;1003686;-74
2023/01/30 06:16:26;;;;;;;19.20;12.30;;;;;;;-0.39;85.54;98985.95;103397;1253;96990;-75
2023/01/30 06:18:53;;;;;;;23.00;13.50;;;;;;;-0.40;85.35;98984.77;103281;1253;139085;-75
2023/01/30 06:21:20;;;;;;;22.60;13.40;;;;;;;-0.41;85.62;98983.59;103357;1253;106137;-76
2023/01/30 06:23:47;;;;;;;21.70;12.90;;;;;;;-0.39;85.36;98991.77;102641;1254;1003014;-76
2023/01/30 06:26:14;;;;;;;21.50;12.40;;;;;;;-0.38;85.42;98991.23;103350;1253;139375;-75
2023/01/30 06:28:41;;;;;;;19.30;12.60;;;;;;;-0.38;85.20;98987.31;103491;1253;96427;-74
2023/01/30 06:31:09;;;;;;;18.50;12.50;;;;;;;-0.38;85.04;98997.55;102484;1253;1002596;-76
2023/01/30 06:33:36;;;;;;;20.60;13.10;;;;;;;-0.39;84.96;98987.31;103373;1254;107908;-76
2023/01/30 06:36:03;;;;;;;19.70;12.80;;;;;;;-0.37;85.09;98985.77;103261;1256;138485;-76
2023/01/30 06:38:30;;;;;;;20.70;13.30;;;;;;;-0.35;84.99;98984.05;102671;1253;1003711;-74
2023/01/30 06:40:57;;;;;;;23.70;13.30;;;;;;;-0.34;84.72;98977.23;103321;1253;96365;-73
2023/01/30 06:43:24;;;;;;;22.50;13.90;;;;;;;-0.35;84.56;98973.81;103366;1253;138149;-74
2023/01/30 06:45:51;;;;;;;19.20;12.40;;;;;;;-0.35;84.44;98959.81;103396;1256;107324;-74
2023/01/30 06:48:19;;;;;;;23.40;13.40;;;;;;;-0.36;83.89;98958.95;102369;1256;1003488;-76
2023/01/30 06:50:47;;;;;;;24.20;12.90;;;;;;;-0.37;83.94;98947.67;103334;1254;108990;-76
2023/01/30 06:53:14;;;;;;;22.60;14.10;;;;;;;-0.36;83.91;98948.19;103296;1253;96464;-74
2023/01/30 06:55:41;;;;;;;20.40;13.30;;;;;;;-0.36;83.79;98948.20;102476;1253;1003104;-75
2023/01/30 06:58:10;;;;;;;23.20;13.50;;;;;;;-0.36;83.49;98947.67;103294;1253;107295;-75
2023/01/30 07:00:39;;;;;;;20.40;13.20;;;;;;;-0.36;83.66;98947.17;103237;1256;138784;-74
2023/01/30 07:03:09;;;;;;;23.20;13.10;;;;;;;-0.35;83.45;98947.17;102491;1254;1003045;-73
2023/01/30 07:05:38;;;;;;;21.90;13.20;;;;;;;-0.34;83.13;98952.12;103478;1253;96456;-74
2023/01/30 07:08:05;;;;;;;23.90;13.60;;;;;;;-0.36;83.10;98936.58;102516;1253;1003022;-75
2023/01/30 07:10:32;;;;;;;21.10;13.30;;;;;;;-0.35;82.67;98942.56;103332;1253;108145;-76
2023/01/30 07:13:00;;;;;;;21.70;13.70;;;;;;;-0.35;82.82;98938.46;103169;1252;138855;-76
2023/01/30 07:15:27;;;;;;;21.80;13.60;;;;;;;-0.35;82.57;98923.61;103376;1252;107006;-75
2023/01/30 07:17:54;;;;;;;23.50;13.60;;;;;;;-0.35;82.32;98919.84;103294;1253;96552;-75
2023/01/30 07:20:21;;;;;;;23.30;13.70;;;;;;;-0.36;82.18;98915.58;103463;1253;111740;-78
2023/01/30 07:22:52;;;;;;;22.70;13.00;;;;;;;-0.36;82.68;98923.95;103344;1256;107870;-76
2023/01/30 07:25:19;;;;;;;20.70;13.70;;;;;;;-0.36;83.04;98914.38;103199;1252;138422;-76
2023/01/30 07:27:51;;;;;;;26.00;13.60;;;;;;;-0.36;82.99;98903.62;101805;1253;1003050;-75
2023/01/30 07:30:19;;;;;;;22.70;14.20;;;;;;;-0.37;82.75;98901.73;103208;1256;139709;-80
2023/01/30 07:32:49;;;;;;;22.40;14.40;;;;;;;-0.38;82.82;98898.67;103390;1256;110960;-77
2023/01/30 07:35:16;;;;;;;24.70;15.10;;;;;;;-0.40;83.09;98896.14;103406;1252;108813;-78
2023/01/30 07:37:46;;;;;;;24.10;15.30;;;;;;;-0.43;83.24;98887.98;103334;1253;140362;-79
2023/01/30 07:40:15;;;;;;;26.10;15.50;;;;;;;-0.45;83.29;98896.88;103164;1253;108251;-81
2023/01/30 07:42:42;;;;;;;25.30;15.50;;;;;;;-0.50;83.29;98879.86;103744;1254;138297;-79
2023/01/30 07:45:11;;;;;;;24.00;15.20;;;;;;;-0.54;83.34;98882.46;103401;1253;109943;-78
2023/01/30 07:47:38;;;;;;;25.30;15.50;;;;;;;-0.60;83.66;98887.27;103378;1253;106626;-81
2023/01/30 07:50:07;;;;;;;26.90;15.60;;;;;;;-0.63;83.84;98884.58;101656;1253;1003410;-81
2023/01/30 07:52:34;;;;;;;24.30;16.20;;;;;;;-0.66;83.99;98869.08;102555;1254;1003053;-77
2023/01/30 07:55:01;;;;;;;27.50;15.90;;;;;;;-0.67;84.41;98876.09;102521;1254;1003694;-79
2023/01/30 07:57:28;;;;;;;27.90;16.80;;;;;;;-0.69;84.76;98874.06;103337;1253;111709;-78
2023/01/30 07:59:55;;;;;;;27.70;17.10;;;;;;;-0.73;84.98;98869.13;103165;1256;108218;-81
2023/01/30 08:02:22;;;;;;;27.50;17.10;;;;;;;-0.76;84.97;98863.34;103519;1253;97681;-79
2023/01/30 08:04:49;;;;;;;28.20;17.60;;;;;;;-0.78;85.22;98870.55;103432;1253;107638;-78
2023/01/30 08:07:16;;;;;;;28.10;17.70;;;;;;;-0.81;85.47;98858.62;103298;1253;140778;-74
2023/01/30 08:09:43;;;;;;;29.00;17.40;;;;;;;-0.84;85.60;98854.73;103344;1253;111235;-73
2023/01/30 08:12:10;;;;;;;32.30;18.30;;;;;;;-0.85;85.73;98861.57;103120;1253;139377;-74
2023/01/30 08:14:37;;;;;;;30.80;18.30;;;;;;;-0.87;86.16;98852.89;103271;1253;97672;-74
2023/01/30 08:17:04;;;;;;;29.90;18.60;;;;;;;-0.88;86.35;98847.10;103398;1253;107721;-74
2023/01/30 08:19:31;;;;;;;33.50;19.50;;;;;;;-0.90;86.42;98840.95;103329;1253;140020;-75
2023/01/30 08:22:00;;;;;;;33.20;19.90;;;;;;;-0.90;86.63;98839.76;103238;1256;111510;-74
2023/01/30 08:24:27;;;;;;;33.50;19.70;;;;;;;-0.89;86.72;98835.67;103233;1253;138793;-74
2023/01/30 08:26:54;;;;;;;30.00;19.00;;;;;;;-0.89;86.76;98833.97;103345;1256;97778;-75
2023/01/30 08:29:21;;;;;;;33.80;19.90;;;;;;;-0.87;86.89;98835.33;103324;1253;107815;-74
2023/01/30 08:31:48;;;;;;;32.80;20.50;;;;;;;-0.86;86.81;98827.13;103418;1256;138438;-74
2023/01/30 08:34:16;;;;;;;30.50;19.40;;;;;;;-0.86;87.03;98830.02;103424;1253;112790;-75
2023/01/30 08:36:45;;;;;;;32.30;20.00;;;;;;;-0.92;87.01;98836.35;103327;1253;140027;-74
2023/01/30 08:39:13;;;;;;;33.30;20.30;;;;;;;-0.95;87.32;98833.98;103173;1256;97813;-73
2023/01/30 08:41:41;;;;;;;33.10;19.30;;;;;;;-0.95;87.32;98826.32;102617;1253;1003036;-76
2023/01/30 08:44:08;;;;;;;32.10;19.50;;;;;;;-0.96;87.33;98836.56;103294;1253;138858;-76
2023/01/30 08:46:38;;;;;;;33.50;20.20;;;;;;;-0.97;87.22;98819.52;103333;1253;111378;-76
2023/01/30 08:49:06;;;;;;;32.20;20.50;;;;;;;-0.98;87.41;98818.84;103332;1256;138496;-72
2023/01/30 08:51:33;;;;;;;35.00;20.50;;;;;;;-0.99;87.64;98808.95;103299;1253;98281;-74
2023/01/30 08:54:00;;;;;;;35.00;20.60;;;;;;;-1.00;87.65;98805.05;103205;1253;138738;-77
2023/01/30 08:56:28;;;;;;;34.80;21.50;;;;;;;-0.99;87.72;98805.38;103313;1253;97708;-78
2023/01/30 08:58:54;;;;;;;34.10;21.10;;;;;;;-0.98;87.68;98800.77;102643;1256;1003184;-78
2023/01/30 09:01:24;;;;;;;38.50;21.90;;;;;;;-0.97;87.83;98791.20;102552;1253;1002861;-74
2023/01/30 09:03:51;;;;;;;39.80;22.10;;;;;;;-0.97;88.10;98791.20;103525;1253;98389;-75
2023/01/30 09:06:18;;;;;;;35.20;20.60;;;;;;;-0.99;88.06;98795.48;103250;1253;138685;-75
2023/01/30 09:08:45;;;;;;;36.20;21.40;;;;;;;-0.99;88.31;98787.64;103368;1256;98326;-78
2023/01/30 09:11:12;;;;;;;40.30;22.70;;;;;;;-1.00;88.26;98787.81;103490;1253;111186;-76
2023/01/30 09:13:42;;;;;;;37.10;22.70;;;;;;;-0.98;88.43;98777.39;103210;1256;139514;-77
2023/01/30 09:16:10;;;;;;;39.40;23.10;;;;;;;-0.96;88.35;98781.12;103341;1253;98456;-76
2023/01/30 09:18:40;;;;;;;38.10;23.40;;;;;;;-0.92;88.41;98769.65;103282;1253;138777;-76
2023/01/30 09:21:08;;;;;;;36.70;21.30;;;;;;;-0.92;88.39;98771.86;103382;1253;98275;-75
2023/01/30 09:23:35;;;;;;;40.40;22.20;;;;;;;-0.93;88.51;98765.56;102627;1253;1003021;-75
2023/01/30 09:26:03;;;;;;;38.20;22.60;;;;;;;-0.91;88.42;98759.39;101706;1252;1002946;-75
2023/01/30 09:28:31;;;;;;;39.70;23.00;;;;;;;-0.89;88.62;98748.83;102579;1256;1003336;-76
2023/01/30 09:31:00;;;;;;;33.50;21.50;;;;;;;-0.87;88.66;98757.85;103175;1256;142215;-76
2023/01/30 09:33:28;;;;;;;36.30;22.70;;;;;;;-0.86;88.64;98751.52;103256;1256;97929;-75
2023/01/30 09:36:03;;;;;;;36.50;21.40;;;;;;;-0.84;88.47;98756.45;103250;1253;138774;-76
2023/01/30 09:38:30;;;;;;;38.50;22.40;;;;;;;-0.84;88.73;98745.02;103356;1254;107460;-76
2023/01/30 09:41:23;;;;;;;36.20;21.10;;;;;;;-0.83;88.63;98738.68;103272;1253;97708;-78
2023/01/30 09:44:03;;;;;;;33.90;21.00;;;;;;;-0.79;88.40;98734.88;103212;1253;138312;-78
2023/01/30 09:46:42;;;;;;;35.40;19.80;;;;;;;-0.77;88.58;98729.05;103278;1253;97689;-75
2023/01/30 09:49:21;;;;;;;37.90;21.20;;;;;;;-0.76;88.68;98729.73;103295;1255;139891;-76
2023/01/30 09:52:03;;;;;;;35.10;20.90;;;;;;;-0.73;88.70;98721.49;103264;1253;107140;-77
2023/01/30 09:54:32;;;;;;;33.00;20.20;;;;;;;-0.71;88.78;98717.05;103209;1253;138746;-73
2023/01/30 09:57:14;;;;;;;32.50;20.40;;;;;;;-0.70;88.71;98704.41;103356;1253;106951;-74
2023/01/30 09:59:58;;;;;;;35.80;21.10;;;;;;;-0.68;88.97;98699.27;103213;1252;97944;-81
2023/01/30 10:02:38;;;;;;;32.30;19.00;;;;;;;-0.66;88.86;98696.00;103394;1253;110861;-76
2023/01/30 10:05:08;;;;;;;30.20;19.90;;;;;;;-0.64;88.99;98696.31;103232;1253;106723;-78
2023/01/30 10:07:47;;;;;;;36.90;19.70;;;;;;;-0.63;89.07;98693.90;103180;1253;138438;-77
2023/01/30 10:10:21;;;;;;;34.00;19.90;;;;;;;-0.62;88.77;98687.24;103240;1253;107413;-80
2023/01/30 10:13:02;;;;;;;31.40;20.10;;;;;;;-0.60;88.90;98681.92;103081;1253;138440;-80
2023/01/30 10:15:40;;;;;;;30.20;19.20;;;;;;;-0.58;89.08;98679.33;103232;1253;110169;-79
2023/01/30 10:18:35;;;;;;;27.30;18.90;;;;;;;-0.57;89.12;98673.34;102395;1256;1003806;-81
2023/01/30 10:21:12;;;;;;;27.90;18.40;;;;;;;-0.56;89.37;98664.62;103270;1256;97810;-78
2023/01/30 10:24:05;;;;;;;28.40;18.20;;;;;;;-0.56;89.42;98660.20;102528;1253;1002866;-82
2023/01/30 10:26:43;;;;;;;37.40;19.50;;;;;;;-0.56;89.32;98660.37;103363;1253;97683;-78
2023/01/30 10:29:35;;;;;;;30.80;18.70;;;;;;;-0.57;89.48;98652.00;103163;1253;112811;-76
2023/01/30 10:32:11;;;;;;;32.80;19.80;;;;;;;-0.56;89.46;98651.50;103105;1253;139176;-77
2023/01/30 10:34:41;;;;;;;31.10;19.50;;;;;;;-0.54;89.78;98648.39;102575;1256;1003246;-75
2023/01/30 10:37:13;;;;;;;30.50;18.80;;;;;;;-0.54;89.76;98641.23;103230;1253;140440;-79
2023/01/30 10:39:47;;;;;;;32.70;20.50;;;;;;;-0.52;89.99;98637.45;102462;1256;1003081;-80
2023/01/30 10:42:28;;;;;;;29.20;18.80;;;;;;;-0.49;90.19;98633.82;103263;1252;139475;-80
2023/01/30 10:45:00;;;;;;;30.20;19.30;;;;;;;-0.47;90.10;98627.13;103506;1253;108307;-83
2023/01/30 10:47:39;;;;;;;31.00;18.60;;;;;;;-0.44;90.07;98622.14;103290;1253;97699;-72
2023/01/30 10:50:18;;;;;;;28.30;18.90;;;;;;;-0.45;90.16;98617.53;103166;1253;138526;-72
2023/01/30 10:52:51;;;;;;;29.90;19.40;;;;;;;-0.44;90.04;98613.09;103653;1255;97784;-73
2023/01/30 10:55:35;;;;;;;31.50;19.30;;;;;;;-0.44;90.25;98611.72;103294;1256;138394;-74
2023/01/30 10:58:15;;;;;;;31.90;20.90;;;;;;;-0.43;90.50;98616.48;102547;1256;1003280;-73
2023/01/30 11:00:47;;;;;;;31.60;19.70;;;;;;;-0.40;90.50;98611.14;103209;1256;138971;-74
2023/01/30 11:03:33;;;;;;;33.10;19.60;;;;;;;-0.37;90.75;98610.23;103221;1253;107432;-77
2023/01/30 11:06:03;;;;;;;28.90;18.00;;;;;;;-0.35;90.75;98606.83;103389;1253;97833;-78
2023/01/30 11:08:33;;;;;;;27.90;18.70;;;;;;;-0.33;90.78;98602.34;103321;1253;111291;-76
2023/01/30 11:11:00;;;;;;;28.10;18.20;;;;;;;-0.31;90.68;98601.29;102777;1253;1002958;-77
2023/01/30 11:13:32;;;;;;;28.60;18.00;;;;;;;-0.29;90.81;98600.75;103538;1253;140586;-77
2023/01/30 11:16:04;;;;;;;27.80;17.60;;;;;;;-0.25;90.95;98598.97;103385;1253;107682;-76
2023/01/30 11:18:31;;;;;;;24.90;16.40;;;;;;;-0.22;91.13;98592.94;103221;1256;138934;-76
2023/01/30 11:21:24;;;;;;;24.80;15.70;;;;;;;-0.18;91.03;98584.69;103332;1253;113106;-77
2023/01/30 11:24:16;;;;;;;28.70;15.70;;;;;;;-0.16;91.10;98586.88;102293;1258;1002942;-76
2023/01/30 11:26:44;;;;;;;23.20;15.10;;;;;;;-0.10;91.30;98589.35;102570;1253;1003083;-76